sensor_id;sensor_type;location;lat;lon;timestamp;P1;durP1;ratioP1;P2;durP2;ratioP2
17725;SDS011;8983;53.156;17.960;2022-08-19T00:01:56;18.38;;;16.55;;
17725;SDS011;8983;53.156;17.960;2022-08-19T00:04:26;18.25;;;16.40;;
17725;SDS011;8983;53.156;17.960;2022-08-19T00:06:56;19.63;;;17.10;;
17725;SDS011;8983;53.156;17.960;2022-08-19T00:09:25;20.90;;;17.20;;
17725;SDS011;8983;53.156;17.960;2022-08-19T00:11:54;17.80;;;16.00;;
17725;SDS011;8983;53.156;17.960;2022-08-19T00:14:24;19.95;;;16.35;;
17725;SDS011;8983;53.156;17.960;2022-08-19T00:16:55;18.10;;;16.27;;
17725;SDS011;8983;53.156;17.960;2022-08-19T00:19:23;21.75;;;16.63;;
17725;SDS011;8983;53.156;17.960;2022-08-19T00:21:51;18.02;;;16.17;;
17725;SDS011;8983;53.156;17.960;2022-08-19T00:24:20;17.25;;;15.45;;
17725;SDS011;8983;53.156;17.960;2022-08-19T00:26:48;19.35;;;17.25;;
17725;SDS011;8983;53.156;17.960;2022-08-19T00:29:18;18.48;;;16.25;;
17725;SDS011;8983;53.156;17.960;2022-08-19T00:31:47;18.80;;;16.67;;
17725;SDS011;8983;53.156;17.960;2022-08-19T00:34:17;18.75;;;16.50;;
17725;SDS011;8983;53.156;17.960;2022-08-19T00:36:45;18.58;;;16.40;;
17725;SDS011;8983;53.156;17.960;2022-08-19T00:39:14;19.50;;;17.52;;
17725;SDS011;8983;53.156;17.960;2022-08-19T00:41:43;21.30;;;17.17;;
17725;SDS011;8983;53.156;17.960;2022-08-19T00:44:14;19.45;;;15.60;;
17725;SDS011;8983;53.156;17.960;2022-08-19T00:46:43;20.23;;;16.63;;
17725;SDS011;8983;53.156;17.960;2022-08-19T00:49:25;17.60;;;15.85;;
17725;SDS011;8983;53.156;17.960;2022-08-19T00:51:58;19.98;;;16.48;;
17725;SDS011;8983;53.156;17.960;2022-08-19T00:54:30;18.20;;;16.42;;
17725;SDS011;8983;53.156;17.960;2022-08-19T00:56:59;20.60;;;17.30;;
17725;SDS011;8983;53.156;17.960;2022-08-19T00:59:29;17.60;;;15.80;;
17725;SDS011;8983;53.156;17.960;2022-08-19T01:02:18;18.83;;;16.33;;
17725;SDS011;8983;53.156;17.960;2022-08-19T01:04:47;17.35;;;15.20;;
17725;SDS011;8983;53.156;17.960;2022-08-19T01:07:15;18.65;;;15.73;;
17725;SDS011;8983;53.156;17.960;2022-08-19T01:09:45;18.65;;;15.13;;
17725;SDS011;8983;53.156;17.960;2022-08-19T01:12:13;17.65;;;15.73;;
17725;SDS011;8983;53.156;17.960;2022-08-19T01:14:43;17.30;;;15.32;;
17725;SDS011;8983;53.156;17.960;2022-08-19T01:17:12;16.83;;;14.93;;
17725;SDS011;8983;53.156;17.960;2022-08-19T01:19:41;16.52;;;14.82;;
17725;SDS011;8983;53.156;17.960;2022-08-19T01:22:14;15.95;;;14.35;;
17725;SDS011;8983;53.156;17.960;2022-08-19T01:24:58;16.60;;;14.57;;
17725;SDS011;8983;53.156;17.960;2022-08-19T01:27:26;16.48;;;14.77;;
17725;SDS011;8983;53.156;17.960;2022-08-19T01:30:10;19.42;;;14.88;;
17725;SDS011;8983;53.156;17.960;2022-08-19T01:32:39;19.48;;;14.25;;
17725;SDS011;8983;53.156;17.960;2022-08-19T01:35:07;16.45;;;14.63;;
17725;SDS011;8983;53.156;17.960;2022-08-19T01:37:44;16.13;;;14.55;;
17725;SDS011;8983;53.156;17.960;2022-08-19T01:40:15;16.45;;;14.75;;
17725;SDS011;8983;53.156;17.960;2022-08-19T01:42:45;19.52;;;15.05;;
17725;SDS011;8983;53.156;17.960;2022-08-19T01:45:13;17.95;;;14.38;;
17725;SDS011;8983;53.156;17.960;2022-08-19T01:47:41;18.30;;;14.98;;
17725;SDS011;8983;53.156;17.960;2022-08-19T01:50:26;15.43;;;13.82;;
17725;SDS011;8983;53.156;17.960;2022-08-19T01:52:54;16.60;;;14.73;;
17725;SDS011;8983;53.156;17.960;2022-08-19T01:55:34;16.63;;;13.43;;
17725;SDS011;8983;53.156;17.960;2022-08-19T01:58:07;16.23;;;14.13;;
17725;SDS011;8983;53.156;17.960;2022-08-19T02:00:38;16.17;;;13.55;;
17725;SDS011;8983;53.156;17.960;2022-08-19T02:03:06;19.23;;;13.95;;
17725;SDS011;8983;53.156;17.960;2022-08-19T02:05:36;16.30;;;12.75;;
17725;SDS011;8983;53.156;17.960;2022-08-19T02:08:04;17.70;;;13.93;;
17725;SDS011;8983;53.156;17.960;2022-08-19T02:10:37;15.48;;;13.65;;
17725;SDS011;8983;53.156;17.960;2022-08-19T02:13:06;19.83;;;14.70;;
17725;SDS011;8983;53.156;17.960;2022-08-19T02:15:36;16.45;;;14.57;;
17725;SDS011;8983;53.156;17.960;2022-08-19T02:18:04;16.45;;;13.32;;
17725;SDS011;8983;53.156;17.960;2022-08-19T02:20:33;15.32;;;13.70;;
17725;SDS011;8983;53.156;17.960;2022-08-19T02:23:01;15.10;;;13.35;;
17725;SDS011;8983;53.156;17.960;2022-08-19T02:25:30;16.25;;;14.40;;
17725;SDS011;8983;53.156;17.960;2022-08-19T02:27:59;21.20;;;16.05;;
17725;SDS011;8983;53.156;17.960;2022-08-19T02:30:28;16.25;;;14.55;;
17725;SDS011;8983;53.156;17.960;2022-08-19T02:32:56;15.63;;;13.95;;
17725;SDS011;8983;53.156;17.960;2022-08-19T02:35:25;22.80;;;14.40;;
17725;SDS011;8983;53.156;17.960;2022-08-19T02:37:53;17.10;;;15.27;;
17725;SDS011;8983;53.156;17.960;2022-08-19T02:40:38;15.02;;;13.52;;
17725;SDS011;8983;53.156;17.960;2022-08-19T02:43:08;16.20;;;14.15;;
17725;SDS011;8983;53.156;17.960;2022-08-19T02:45:37;17.17;;;14.27;;
17725;SDS011;8983;53.156;17.960;2022-08-19T02:48:07;18.77;;;14.90;;
17725;SDS011;8983;53.156;17.960;2022-08-19T02:50:47;15.77;;;14.07;;
17725;SDS011;8983;53.156;17.960;2022-08-19T02:53:21;17.38;;;14.73;;
17725;SDS011;8983;53.156;17.960;2022-08-19T02:55:50;16.80;;;14.40;;
17725;SDS011;8983;53.156;17.960;2022-08-19T02:58:20;17.63;;;13.23;;
17725;SDS011;8983;53.156;17.960;2022-08-19T03:00:51;18.40;;;14.52;;
17725;SDS011;8983;53.156;17.960;2022-08-19T03:03:20;16.40;;;14.02;;
17725;SDS011;8983;53.156;17.960;2022-08-19T03:05:48;14.45;;;12.95;;
17725;SDS011;8983;53.156;17.960;2022-08-19T03:08:22;16.55;;;13.48;;
17725;SDS011;8983;53.156;17.960;2022-08-19T03:10:51;15.88;;;13.55;;
17725;SDS011;8983;53.156;17.960;2022-08-19T03:13:21;16.17;;;13.85;;
17725;SDS011;8983;53.156;17.960;2022-08-19T03:15:50;16.05;;;14.43;;
17725;SDS011;8983;53.156;17.960;2022-08-19T03:18:18;16.92;;;15.23;;
17725;SDS011;8983;53.156;17.960;2022-08-19T03:20:49;16.85;;;15.10;;
17725;SDS011;8983;53.156;17.960;2022-08-19T03:23:19;17.05;;;13.63;;
17725;SDS011;8983;53.156;17.960;2022-08-19T03:25:47;16.20;;;14.50;;
17725;SDS011;8983;53.156;17.960;2022-08-19T03:28:39;15.88;;;14.00;;
17725;SDS011;8983;53.156;17.960;2022-08-19T03:31:13;17.10;;;15.43;;
17725;SDS011;8983;53.156;17.960;2022-08-19T03:34:01;18.92;;;15.15;;
17725;SDS011;8983;53.156;17.960;2022-08-19T03:36:33;15.48;;;13.88;;
17725;SDS011;8983;53.156;17.960;2022-08-19T03:39:02;18.27;;;15.18;;
17725;SDS011;8983;53.156;17.960;2022-08-19T03:41:31;17.70;;;14.57;;
17725;SDS011;8983;53.156;17.960;2022-08-19T03:44:12;17.80;;;14.82;;
17725;SDS011;8983;53.156;17.960;2022-08-19T03:46:44;19.52;;;14.90;;
17725;SDS011;8983;53.156;17.960;2022-08-19T03:49:13;18.58;;;14.23;;
17725;SDS011;8983;53.156;17.960;2022-08-19T03:51:44;15.52;;;13.88;;
17725;SDS011;8983;53.156;17.960;2022-08-19T03:54:13;15.88;;;14.18;;
17725;SDS011;8983;53.156;17.960;2022-08-19T03:56:43;17.10;;;15.20;;
17725;SDS011;8983;53.156;17.960;2022-08-19T03:59:15;17.08;;;14.80;;
17725;SDS011;8983;53.156;17.960;2022-08-19T04:01:45;17.92;;;14.15;;
17725;SDS011;8983;53.156;17.960;2022-08-19T04:04:14;16.27;;;14.57;;
17725;SDS011;8983;53.156;17.960;2022-08-19T04:06:45;16.08;;;14.32;;
17725;SDS011;8983;53.156;17.960;2022-08-19T04:09:13;16.67;;;14.95;;
17725;SDS011;8983;53.156;17.960;2022-08-19T04:11:42;16.73;;;14.18;;
17725;SDS011;8983;53.156;17.960;2022-08-19T04:14:13;17.25;;;14.27;;
17725;SDS011;8983;53.156;17.960;2022-08-19T04:16:44;16.58;;;14.85;;
17725;SDS011;8983;53.156;17.960;2022-08-19T04:19:13;16.35;;;14.70;;
17725;SDS011;8983;53.156;17.960;2022-08-19T04:21:42;18.63;;;14.68;;
17725;SDS011;8983;53.156;17.960;2022-08-19T04:24:11;17.30;;;14.27;;
17725;SDS011;8983;53.156;17.960;2022-08-19T04:26:40;15.98;;;14.38;;
17725;SDS011;8983;53.156;17.960;2022-08-19T04:29:09;16.77;;;14.88;;
17725;SDS011;8983;53.156;17.960;2022-08-19T04:31:40;16.42;;;14.73;;
17725;SDS011;8983;53.156;17.960;2022-08-19T04:34:12;18.45;;;15.10;;
17725;SDS011;8983;53.156;17.960;2022-08-19T04:36:43;17.85;;;15.13;;
17725;SDS011;8983;53.156;17.960;2022-08-19T04:39:12;16.10;;;14.32;;
17725;SDS011;8983;53.156;17.960;2022-08-19T04:41:42;18.10;;;14.82;;
17725;SDS011;8983;53.156;17.960;2022-08-19T04:44:29;20.45;;;14.73;;
17725;SDS011;8983;53.156;17.960;2022-08-19T04:47:02;21.45;;;14.73;;
17725;SDS011;8983;53.156;17.960;2022-08-19T04:49:36;17.20;;;14.70;;
17725;SDS011;8983;53.156;17.960;2022-08-19T04:52:05;15.02;;;13.32;;
17725;SDS011;8983;53.156;17.960;2022-08-19T04:54:34;16.77;;;14.00;;
17725;SDS011;8983;53.156;17.960;2022-08-19T04:57:06;17.48;;;14.18;;
17725;SDS011;8983;53.156;17.960;2022-08-19T04:59:36;16.48;;;14.75;;
17725;SDS011;8983;53.156;17.960;2022-08-19T05:02:07;17.52;;;15.65;;
17725;SDS011;8983;53.156;17.960;2022-08-19T05:04:37;16.67;;;14.20;;
17725;SDS011;8983;53.156;17.960;2022-08-19T05:07:05;15.93;;;14.25;;
17725;SDS011;8983;53.156;17.960;2022-08-19T05:09:34;20.02;;;14.65;;
17725;SDS011;8983;53.156;17.960;2022-08-19T05:12:22;16.23;;;14.52;;
17725;SDS011;8983;53.156;17.960;2022-08-19T05:14:54;21.23;;;13.38;;
17725;SDS011;8983;53.156;17.960;2022-08-19T05:17:25;14.85;;;13.15;;
17725;SDS011;8983;53.156;17.960;2022-08-19T05:20:00;19.67;;;13.90;;
17725;SDS011;8983;53.156;17.960;2022-08-19T05:22:46;15.13;;;13.30;;
17725;SDS011;8983;53.156;17.960;2022-08-19T05:25:17;15.02;;;13.50;;
17725;SDS011;8983;53.156;17.960;2022-08-19T05:27:47;20.77;;;13.75;;
17725;SDS011;8983;53.156;17.960;2022-08-19T05:30:16;15.15;;;13.05;;
17725;SDS011;8983;53.156;17.960;2022-08-19T05:33:07;14.77;;;11.98;;
17725;SDS011;8983;53.156;17.960;2022-08-19T05:35:38;15.30;;;12.63;;
17725;SDS011;8983;53.156;17.960;2022-08-19T05:38:07;15.63;;;12.95;;
17725;SDS011;8983;53.156;17.960;2022-08-19T05:40:37;16.23;;;12.38;;
17725;SDS011;8983;53.156;17.960;2022-08-19T05:43:07;13.70;;;12.13;;
17725;SDS011;8983;53.156;17.960;2022-08-19T05:45:37;14.05;;;12.63;;
17725;SDS011;8983;53.156;17.960;2022-08-19T05:48:08;13.40;;;11.98;;
17725;SDS011;8983;53.156;17.960;2022-08-19T05:50:37;13.75;;;11.95;;
17725;SDS011;8983;53.156;17.960;2022-08-19T05:53:06;13.95;;;12.35;;
17725;SDS011;8983;53.156;17.960;2022-08-19T05:55:35;15.80;;;12.43;;
17725;SDS011;8983;53.156;17.960;2022-08-19T05:58:04;13.45;;;12.05;;
17725;SDS011;8983;53.156;17.960;2022-08-19T06:00:33;12.35;;;11.05;;
17725;SDS011;8983;53.156;17.960;2022-08-19T06:03:02;15.35;;;11.88;;
17725;SDS011;8983;53.156;17.960;2022-08-19T06:05:39;12.70;;;11.10;;
17725;SDS011;8983;53.156;17.960;2022-08-19T06:08:17;12.45;;;11.05;;
17725;SDS011;8983;53.156;17.960;2022-08-19T06:11:11;12.80;;;10.77;;
17725;SDS011;8983;53.156;17.960;2022-08-19T06:13:41;12.73;;;10.57;;
17725;SDS011;8983;53.156;17.960;2022-08-19T06:16:11;12.00;;;10.80;;
17725;SDS011;8983;53.156;17.960;2022-08-19T06:18:39;12.07;;;10.30;;
17725;SDS011;8983;53.156;17.960;2022-08-19T06:21:08;11.95;;;10.30;;
17725;SDS011;8983;53.156;17.960;2022-08-19T06:23:36;11.48;;;10.30;;
17725;SDS011;8983;53.156;17.960;2022-08-19T06:26:05;13.23;;;10.93;;
17725;SDS011;8983;53.156;17.960;2022-08-19T06:28:34;11.93;;;10.70;;
17725;SDS011;8983;53.156;17.960;2022-08-19T06:31:05;13.95;;;10.10;;
17725;SDS011;8983;53.156;17.960;2022-08-19T06:33:34;11.90;;;10.48;;
17725;SDS011;8983;53.156;17.960;2022-08-19T06:36:02;13.02;;;10.32;;
17725;SDS011;8983;53.156;17.960;2022-08-19T06:38:32;11.57;;;10.30;;
17725;SDS011;8983;53.156;17.960;2022-08-19T06:41:01;11.55;;;9.98;;
17725;SDS011;8983;53.156;17.960;2022-08-19T06:43:33;10.73;;;9.63;;
17725;SDS011;8983;53.156;17.960;2022-08-19T06:46:09;11.35;;;9.85;;
17725;SDS011;8983;53.156;17.960;2022-08-19T06:48:40;11.43;;;9.93;;
17725;SDS011;8983;53.156;17.960;2022-08-19T06:51:11;11.82;;;9.45;;
17725;SDS011;8983;53.156;17.960;2022-08-19T06:53:46;13.13;;;9.57;;
17725;SDS011;8983;53.156;17.960;2022-08-19T06:56:20;13.95;;;10.32;;
17725;SDS011;8983;53.156;17.960;2022-08-19T06:58:51;10.07;;;8.90;;
17725;SDS011;8983;53.156;17.960;2022-08-19T07:01:19;12.73;;;9.75;;
17725;SDS011;8983;53.156;17.960;2022-08-19T07:03:47;11.65;;;9.07;;
17725;SDS011;8983;53.156;17.960;2022-08-19T07:06:16;10.55;;;9.55;;
17725;SDS011;8983;53.156;17.960;2022-08-19T07:09:08;9.88;;;8.80;;
17725;SDS011;8983;53.156;17.960;2022-08-19T07:11:37;10.38;;;8.43;;
17725;SDS011;8983;53.156;17.960;2022-08-19T07:14:05;10.65;;;9.55;;
17725;SDS011;8983;53.156;17.960;2022-08-19T07:16:45;18.77;;;9.57;;
17725;SDS011;8983;53.156;17.960;2022-08-19T07:19:14;10.40;;;8.50;;
17725;SDS011;8983;53.156;17.960;2022-08-19T07:21:44;11.68;;;8.85;;
17725;SDS011;8983;53.156;17.960;2022-08-19T07:24:19;11.15;;;8.75;;
17725;SDS011;8983;53.156;17.960;2022-08-19T07:26:50;9.13;;;8.23;;
17725;SDS011;8983;53.156;17.960;2022-08-19T07:29:20;10.57;;;9.27;;
17725;SDS011;8983;53.156;17.960;2022-08-19T07:31:53;12.23;;;8.20;;
17725;SDS011;8983;53.156;17.960;2022-08-19T07:34:26;10.77;;;8.75;;
17725;SDS011;8983;53.156;17.960;2022-08-19T07:36:55;10.23;;;8.18;;
17725;SDS011;8983;53.156;17.960;2022-08-19T07:39:28;11.00;;;8.20;;
17725;SDS011;8983;53.156;17.960;2022-08-19T07:41:58;9.25;;;8.30;;
17725;SDS011;8983;53.156;17.960;2022-08-19T07:44:28;11.10;;;8.23;;
17725;SDS011;8983;53.156;17.960;2022-08-19T07:46:56;9.85;;;8.85;;
17725;SDS011;8983;53.156;17.960;2022-08-19T07:49:26;9.80;;;7.57;;
17725;SDS011;8983;53.156;17.960;2022-08-19T07:51:56;11.65;;;8.20;;
17725;SDS011;8983;53.156;17.960;2022-08-19T07:54:29;9.90;;;8.32;;
17725;SDS011;8983;53.156;17.960;2022-08-19T07:57:00;11.18;;;7.85;;
17725;SDS011;8983;53.156;17.960;2022-08-19T07:59:29;10.35;;;8.05;;
17725;SDS011;8983;53.156;17.960;2022-08-19T08:01:58;8.88;;;7.45;;
17725;SDS011;8983;53.156;17.960;2022-08-19T08:04:26;9.52;;;7.28;;
17725;SDS011;8983;53.156;17.960;2022-08-19T08:07:12;10.20;;;8.13;;
17725;SDS011;8983;53.156;17.960;2022-08-19T08:09:59;8.15;;;7.35;;
17725;SDS011;8983;53.156;17.960;2022-08-19T08:12:30;9.93;;;7.53;;
17725;SDS011;8983;53.156;17.960;2022-08-19T08:15:02;10.00;;;7.97;;
17725;SDS011;8983;53.156;17.960;2022-08-19T08:17:37;9.93;;;7.45;;
17725;SDS011;8983;53.156;17.960;2022-08-19T08:20:16;8.65;;;7.15;;
17725;SDS011;8983;53.156;17.960;2022-08-19T08:22:45;13.43;;;7.60;;
17725;SDS011;8983;53.156;17.960;2022-08-19T08:25:34;13.23;;;7.55;;
17725;SDS011;8983;53.156;17.960;2022-08-19T08:28:04;10.02;;;6.75;;
17725;SDS011;8983;53.156;17.960;2022-08-19T08:30:36;8.07;;;7.35;;
17725;SDS011;8983;53.156;17.960;2022-08-19T08:33:10;7.43;;;6.72;;
17725;SDS011;8983;53.156;17.960;2022-08-19T08:35:39;12.40;;;7.40;;
17725;SDS011;8983;53.156;17.960;2022-08-19T08:38:09;8.57;;;6.95;;
17725;SDS011;8983;53.156;17.960;2022-08-19T08:40:39;8.35;;;6.88;;
17725;SDS011;8983;53.156;17.960;2022-08-19T08:43:16;8.77;;;6.97;;
17725;SDS011;8983;53.156;17.960;2022-08-19T08:45:50;9.45;;;6.53;;
17725;SDS011;8983;53.156;17.960;2022-08-19T08:48:24;8.10;;;7.10;;
17725;SDS011;8983;53.156;17.960;2022-08-19T08:51:02;9.35;;;7.00;;
17725;SDS011;8983;53.156;17.960;2022-08-19T08:53:34;8.20;;;6.85;;
17725;SDS011;8983;53.156;17.960;2022-08-19T08:56:08;7.70;;;6.47;;
17725;SDS011;8983;53.156;17.960;2022-08-19T08:58:46;8.82;;;6.10;;
17725;SDS011;8983;53.156;17.960;2022-08-19T09:01:20;6.95;;;6.30;;
17725;SDS011;8983;53.156;17.960;2022-08-19T09:03:49;9.70;;;6.10;;
17725;SDS011;8983;53.156;17.960;2022-08-19T09:06:20;8.80;;;6.32;;
17725;SDS011;8983;53.156;17.960;2022-08-19T09:08:56;9.60;;;6.35;;
17725;SDS011;8983;53.156;17.960;2022-08-19T09:11:44;7.68;;;6.63;;
17725;SDS011;8983;53.156;17.960;2022-08-19T09:14:32;8.50;;;6.10;;
17725;SDS011;8983;53.156;17.960;2022-08-19T09:17:17;6.68;;;5.75;;
17725;SDS011;8983;53.156;17.960;2022-08-19T09:19:57;8.48;;;5.75;;
17725;SDS011;8983;53.156;17.960;2022-08-19T09:22:30;7.68;;;6.10;;
17725;SDS011;8983;53.156;17.960;2022-08-19T09:24:59;7.32;;;6.18;;
17725;SDS011;8983;53.156;17.960;2022-08-19T09:27:28;7.93;;;6.10;;
17725;SDS011;8983;53.156;17.960;2022-08-19T09:30:19;7.25;;;6.18;;
17725;SDS011;8983;53.156;17.960;2022-08-19T09:32:48;6.68;;;6.00;;
17725;SDS011;8983;53.156;17.960;2022-08-19T09:35:19;6.97;;;6.30;;
17725;SDS011;8983;53.156;17.960;2022-08-19T09:37:49;7.38;;;6.28;;
17725;SDS011;8983;53.156;17.960;2022-08-19T09:40:24;9.35;;;6.30;;
17725;SDS011;8983;53.156;17.960;2022-08-19T09:42:57;7.57;;;6.22;;
17725;SDS011;8983;53.156;17.960;2022-08-19T09:45:38;6.40;;;5.53;;
17725;SDS011;8983;53.156;17.960;2022-08-19T09:48:07;7.30;;;6.55;;
17725;SDS011;8983;53.156;17.960;2022-08-19T09:50:44;11.65;;;6.45;;
17725;SDS011;8983;53.156;17.960;2022-08-19T09:53:17;7.82;;;5.75;;
17725;SDS011;8983;53.156;17.960;2022-08-19T09:55:50;7.72;;;6.05;;
17725;SDS011;8983;53.156;17.960;2022-08-19T09:58:20;7.38;;;6.22;;
17725;SDS011;8983;53.156;17.960;2022-08-19T10:00:52;8.38;;;6.45;;
17725;SDS011;8983;53.156;17.960;2022-08-19T10:03:21;7.15;;;5.90;;
17725;SDS011;8983;53.156;17.960;2022-08-19T10:05:55;9.25;;;6.25;;
17725;SDS011;8983;53.156;17.960;2022-08-19T10:08:26;9.80;;;6.60;;
17725;SDS011;8983;53.156;17.960;2022-08-19T10:10:56;8.45;;;6.13;;
17725;SDS011;8983;53.156;17.960;2022-08-19T10:13:46;7.85;;;5.88;;
17725;SDS011;8983;53.156;17.960;2022-08-19T10:16:15;7.07;;;6.28;;
17725;SDS011;8983;53.156;17.960;2022-08-19T10:18:46;7.60;;;6.05;;
17725;SDS011;8983;53.156;17.960;2022-08-19T10:21:15;6.45;;;5.70;;
17725;SDS011;8983;53.156;17.960;2022-08-19T10:23:46;6.22;;;5.63;;
17725;SDS011;8983;53.156;17.960;2022-08-19T10:26:16;6.38;;;5.75;;
17725;SDS011;8983;53.156;17.960;2022-08-19T10:28:47;6.93;;;6.20;;
17725;SDS011;8983;53.156;17.960;2022-08-19T10:31:16;6.28;;;5.45;;
17725;SDS011;8983;53.156;17.960;2022-08-19T10:34:06;7.38;;;5.90;;
17725;SDS011;8983;53.156;17.960;2022-08-19T10:36:52;9.43;;;6.13;;
17725;SDS011;8983;53.156;17.960;2022-08-19T10:39:22;6.35;;;5.72;;
17725;SDS011;8983;53.156;17.960;2022-08-19T10:41:56;6.07;;;5.47;;
17725;SDS011;8983;53.156;17.960;2022-08-19T10:44:25;7.28;;;6.07;;
17725;SDS011;8983;53.156;17.960;2022-08-19T10:46:57;9.35;;;6.00;;
17725;SDS011;8983;53.156;17.960;2022-08-19T10:49:26;6.45;;;5.63;;
17725;SDS011;8983;53.156;17.960;2022-08-19T10:51:54;7.47;;;5.10;;
17725;SDS011;8983;53.156;17.960;2022-08-19T10:54:45;6.63;;;5.80;;
17725;SDS011;8983;53.156;17.960;2022-08-19T10:57:34;6.38;;;5.55;;
17725;SDS011;8983;53.156;17.960;2022-08-19T11:00:24;7.05;;;5.30;;
17725;SDS011;8983;53.156;17.960;2022-08-19T11:02:52;6.25;;;5.65;;
17725;SDS011;8983;53.156;17.960;2022-08-19T11:05:22;8.02;;;5.95;;
17725;SDS011;8983;53.156;17.960;2022-08-19T11:07:50;8.30;;;6.35;;
17725;SDS011;8983;53.156;17.960;2022-08-19T11:10:18;10.23;;;5.88;;
17725;SDS011;8983;53.156;17.960;2022-08-19T11:12:48;7.57;;;5.90;;
17725;SDS011;8983;53.156;17.960;2022-08-19T11:15:19;6.13;;;5.53;;
17725;SDS011;8983;53.156;17.960;2022-08-19T11:17:49;7.18;;;5.80;;
17725;SDS011;8983;53.156;17.960;2022-08-19T11:20:20;7.05;;;6.35;;
17725;SDS011;8983;53.156;17.960;2022-08-19T11:22:51;10.00;;;5.78;;
17725;SDS011;8983;53.156;17.960;2022-08-19T11:25:19;6.78;;;5.97;;
17725;SDS011;8983;53.156;17.960;2022-08-19T11:27:48;8.35;;;6.15;;
17725;SDS011;8983;53.156;17.960;2022-08-19T11:30:18;7.75;;;5.75;;
17725;SDS011;8983;53.156;17.960;2022-08-19T11:32:46;6.30;;;5.55;;
17725;SDS011;8983;53.156;17.960;2022-08-19T11:35:16;6.30;;;5.70;;
17725;SDS011;8983;53.156;17.960;2022-08-19T11:37:46;7.13;;;5.82;;
17725;SDS011;8983;53.156;17.960;2022-08-19T11:40:14;7.47;;;5.82;;
17725;SDS011;8983;53.156;17.960;2022-08-19T11:42:42;6.95;;;6.35;;
17725;SDS011;8983;53.156;17.960;2022-08-19T11:45:22;7.63;;;5.38;;
17725;SDS011;8983;53.156;17.960;2022-08-19T11:47:52;6.78;;;5.57;;
17725;SDS011;8983;53.156;17.960;2022-08-19T11:50:21;7.18;;;5.60;;
17725;SDS011;8983;53.156;17.960;2022-08-19T11:52:52;7.53;;;5.70;;
17725;SDS011;8983;53.156;17.960;2022-08-19T11:55:21;6.25;;;5.65;;
17725;SDS011;8983;53.156;17.960;2022-08-19T11:57:50;9.45;;;5.05;;
17725;SDS011;8983;53.156;17.960;2022-08-19T12:00:18;6.78;;;4.72;;
17725;SDS011;8983;53.156;17.960;2022-08-19T12:02:46;6.55;;;5.07;;
17725;SDS011;8983;53.156;17.960;2022-08-19T12:05:16;8.82;;;4.97;;
17725;SDS011;8983;53.156;17.960;2022-08-19T12:07:44;8.60;;;4.90;;
17725;SDS011;8983;53.156;17.960;2022-08-19T12:10:12;13.05;;;5.50;;
17725;SDS011;8983;53.156;17.960;2022-08-19T12:12:44;5.80;;;4.63;;
17725;SDS011;8983;53.156;17.960;2022-08-19T12:15:23;6.82;;;4.75;;
17725;SDS011;8983;53.156;17.960;2022-08-19T12:18:02;5.63;;;4.97;;
17725;SDS011;8983;53.156;17.960;2022-08-19T12:20:32;13.38;;;5.43;;
17725;SDS011;8983;53.156;17.960;2022-08-19T12:23:02;7.60;;;4.80;;
17725;SDS011;8983;53.156;17.960;2022-08-19T12:25:30;6.70;;;4.85;;
17725;SDS011;8983;53.156;17.960;2022-08-19T12:27:59;5.47;;;4.68;;
17725;SDS011;8983;53.156;17.960;2022-08-19T12:30:28;5.75;;;4.97;;
17725;SDS011;8983;53.156;17.960;2022-08-19T12:32:56;7.32;;;4.97;;
17725;SDS011;8983;53.156;17.960;2022-08-19T12:35:25;6.57;;;5.25;;
17725;SDS011;8983;53.156;17.960;2022-08-19T12:37:54;6.18;;;5.00;;
17725;SDS011;8983;53.156;17.960;2022-08-19T12:40:23;6.97;;;5.20;;
17725;SDS011;8983;53.156;17.960;2022-08-19T12:42:51;13.70;;;5.20;;
17725;SDS011;8983;53.156;17.960;2022-08-19T12:45:20;10.15;;;4.75;;
17725;SDS011;8983;53.156;17.960;2022-08-19T12:47:48;7.95;;;5.20;;
17725;SDS011;8983;53.156;17.960;2022-08-19T12:50:20;10.18;;;5.38;;
17725;SDS011;8983;53.156;17.960;2022-08-19T12:52:48;6.55;;;5.05;;
17725;SDS011;8983;53.156;17.960;2022-08-19T12:55:18;7.88;;;4.78;;
17725;SDS011;8983;53.156;17.960;2022-08-19T12:57:46;7.95;;;5.50;;
17725;SDS011;8983;53.156;17.960;2022-08-19T13:00:15;6.38;;;5.13;;
17725;SDS011;8983;53.156;17.960;2022-08-19T13:02:48;8.80;;;4.97;;
17725;SDS011;8983;53.156;17.960;2022-08-19T13:05:17;7.18;;;5.47;;
17725;SDS011;8983;53.156;17.960;2022-08-19T13:07:49;8.68;;;5.00;;
17725;SDS011;8983;53.156;17.960;2022-08-19T13:10:20;9.63;;;5.63;;
17725;SDS011;8983;53.156;17.960;2022-08-19T13:12:49;7.50;;;4.80;;
17725;SDS011;8983;53.156;17.960;2022-08-19T13:15:19;5.57;;;4.85;;
17725;SDS011;8983;53.156;17.960;2022-08-19T13:17:50;8.30;;;5.05;;
17725;SDS011;8983;53.156;17.960;2022-08-19T13:20:20;6.88;;;5.20;;
17725;SDS011;8983;53.156;17.960;2022-08-19T13:22:49;6.07;;;4.97;;
17725;SDS011;8983;53.156;17.960;2022-08-19T13:25:18;10.05;;;4.97;;
17725;SDS011;8983;53.156;17.960;2022-08-19T13:27:48;6.53;;;4.70;;
17725;SDS011;8983;53.156;17.960;2022-08-19T13:30:19;5.07;;;4.55;;
17725;SDS011;8983;53.156;17.960;2022-08-19T13:33:05;5.65;;;4.78;;
17725;SDS011;8983;53.156;17.960;2022-08-19T13:35:42;11.85;;;4.95;;
17725;SDS011;8983;53.156;17.960;2022-08-19T13:38:13;7.50;;;4.65;;
17725;SDS011;8983;53.156;17.960;2022-08-19T13:40:44;7.70;;;5.38;;
17725;SDS011;8983;53.156;17.960;2022-08-19T13:43:12;7.78;;;5.35;;
17725;SDS011;8983;53.156;17.960;2022-08-19T13:45:48;7.05;;;4.63;;
17725;SDS011;8983;53.156;17.960;2022-08-19T13:48:18;7.00;;;4.85;;
17725;SDS011;8983;53.156;17.960;2022-08-19T13:50:46;6.80;;;4.95;;
17725;SDS011;8983;53.156;17.960;2022-08-19T13:53:14;6.45;;;4.90;;
17725;SDS011;8983;53.156;17.960;2022-08-19T13:55:45;7.25;;;5.00;;
17725;SDS011;8983;53.156;17.960;2022-08-19T13:58:13;12.55;;;4.90;;
17725;SDS011;8983;53.156;17.960;2022-08-19T14:00:42;7.13;;;4.90;;
17725;SDS011;8983;53.156;17.960;2022-08-19T14:03:12;9.90;;;4.97;;
17725;SDS011;8983;53.156;17.960;2022-08-19T14:05:40;7.38;;;5.43;;
17725;SDS011;8983;53.156;17.960;2022-08-19T14:08:09;11.38;;;5.00;;
17725;SDS011;8983;53.156;17.960;2022-08-19T14:10:40;6.38;;;4.80;;
17725;SDS011;8983;53.156;17.960;2022-08-19T14:13:12;7.65;;;4.75;;
17725;SDS011;8983;53.156;17.960;2022-08-19T14:15:42;7.28;;;5.20;;
17725;SDS011;8983;53.156;17.960;2022-08-19T14:18:10;7.32;;;5.10;;
17725;SDS011;8983;53.156;17.960;2022-08-19T14:20:39;8.45;;;4.80;;
17725;SDS011;8983;53.156;17.960;2022-08-19T14:23:07;8.18;;;4.65;;
17725;SDS011;8983;53.156;17.960;2022-08-19T14:25:36;7.20;;;4.72;;
17725;SDS011;8983;53.156;17.960;2022-08-19T14:28:04;6.38;;;4.45;;
17725;SDS011;8983;53.156;17.960;2022-08-19T14:30:34;5.80;;;5.20;;
17725;SDS011;8983;53.156;17.960;2022-08-19T14:33:05;5.97;;;4.57;;
17725;SDS011;8983;53.156;17.960;2022-08-19T14:35:34;7.53;;;5.53;;
17725;SDS011;8983;53.156;17.960;2022-08-19T14:38:03;9.15;;;5.00;;
17725;SDS011;8983;53.156;17.960;2022-08-19T14:40:33;6.70;;;5.32;;
17725;SDS011;8983;53.156;17.960;2022-08-19T14:43:02;6.57;;;5.05;;
17725;SDS011;8983;53.156;17.960;2022-08-19T14:45:31;6.85;;;6.03;;
17725;SDS011;8983;53.156;17.960;2022-08-19T14:48:06;6.38;;;4.53;;
17725;SDS011;8983;53.156;17.960;2022-08-19T14:50:44;6.40;;;5.07;;
17725;SDS011;8983;53.156;17.960;2022-08-19T14:53:13;9.07;;;4.93;;
17725;SDS011;8983;53.156;17.960;2022-08-19T14:55:43;10.13;;;5.00;;
17725;SDS011;8983;53.156;17.960;2022-08-19T14:58:12;9.43;;;5.13;;
17725;SDS011;8983;53.156;17.960;2022-08-19T15:00:57;7.88;;;5.15;;